Time;durP1;ratioP1;P1;durP2;ratioP2;P2;SDS_P1;SDS_P2;PMS_P1;PMS_P2;Temp;Humidity;BMP_temperature;BMP_pressure;BME280_temperature;BME280_humidity;BME280_pressure;Samples;Min_cycle;Max_cycle;Signal;HPM_P1;HPM_P2
2023/08/14 00:01:20;;;;;;;6.13;3.30;;;16.30;99.90;;;;;;5059417;28;20039;-75
2023/08/14 00:03:46;;;;;;;5.20;3.33;;;16.30;99.90;;;;;;5054719;28;20538;-75
2023/08/14 00:06:11;;;;;;;4.65;3.35;;;16.30;99.90;;;;;;5068241;28;20040;-75
2023/08/14 00:08:37;;;;;;;3.97;3.30;;;16.30;99.90;;;;;;5071263;28;20615;-75
2023/08/14 00:11:02;;;;;;;4.45;3.47;;;16.30;99.90;;;;;;5074231;28;20040;-75
2023/08/14 00:13:28;;;;;;;4.80;3.28;;;16.20;99.90;;;;;;5070685;28;20503;-75
2023/08/14 00:15:53;;;;;;;4.65;3.22;;;16.20;99.90;;;;;;5070480;28;20032;-74
2023/08/14 00:18:19;;;;;;;4.43;2.85;;;16.20;99.90;;;;;;5064247;28;20041;-75
2023/08/14 00:20:45;;;;;;;3.90;2.97;;;16.20;99.90;;;;;;5061765;28;20147;-76
2023/08/14 00:23:10;;;;;;;5.82;3.20;;;16.10;99.90;;;;;;5070441;28;20044;-75
2023/08/14 00:25:36;;;;;;;3.75;3.22;;;16.10;99.90;;;;;;5074519;28;20513;-75
2023/08/14 00:28:01;;;;;;;6.20;3.22;;;16.10;99.90;;;;;;5074566;28;20058;-75
2023/08/14 00:30:27;;;;;;;3.92;3.50;;;16.00;99.90;;;;;;5070806;28;20028;-75
2023/08/14 00:32:52;;;;;;;4.50;3.17;;;16.10;99.90;;;;;;5065117;28;20105;-75
2023/08/14 00:35:18;;;;;;;6.50;3.63;;;16.00;99.90;;;;;;5090218;28;20039;-75
2023/08/14 00:37:48;;;;;;;5.53;2.92;;;16.00;99.90;;;;;;5073570;28;20131;-75
2023/08/14 00:40:14;;;;;;;5.50;3.63;;;16.00;99.90;;;;;;5074008;28;20040;-75
2023/08/14 00:42:42;;;;;;;4.90;3.30;;;16.00;99.90;;;;;;5073920;28;20040;-75
2023/08/14 00:45:09;;;;;;;4.15;3.22;;;15.90;99.90;;;;;;5068544;28;20040;-75
2023/08/14 00:47:35;;;;;;;5.22;3.35;;;15.90;99.90;;;;;;5066018;28;20075;-75
2023/08/14 00:50:05;;;;;;;4.05;3.10;;;15.90;99.90;;;;;;5074468;28;20466;-75
2023/08/14 00:52:35;;;;;;;6.57;3.40;;;15.80;99.90;;;;;;5064691;28;20044;-76
2023/08/14 00:55:02;;;;;;;5.38;3.72;;;15.80;99.90;;;;;;5066347;28;20044;-76
2023/08/14 00:57:29;;;;;;;5.72;3.47;;;15.70;99.90;;;;;;5063175;28;20119;-75
2023/08/14 00:59:56;;;;;;;4.78;3.53;;;15.70;99.90;;;;;;5074885;28;20534;-76
2023/08/14 01:02:23;;;;;;;4.63;3.72;;;15.70;99.90;;;;;;5064220;28;20053;-75
2023/08/14 01:04:49;;;;;;;4.35;3.20;;;15.70;99.90;;;;;;5085428;28;20105;-75
2023/08/14 01:07:14;;;;;;;4.53;3.70;;;15.70;99.90;;;;;;5073120;28;20048;-75
2023/08/14 01:09:40;;;;;;;6.85;4.03;;;15.70;99.90;;;;;;5071128;28;20119;-75
2023/08/14 01:12:25;;;;;;;4.15;3.60;;;15.60;99.90;;;;;;5070163;28;20447;-75
2023/08/14 01:14:58;;;;;;;5.03;3.25;;;15.60;99.90;;;;;;5066716;28;20549;-75
2023/08/14 01:17:29;;;;;;;4.70;3.30;;;15.70;99.90;;;;;;5072523;28;20133;-75
2023/08/14 01:19:57;;;;;;;5.38;3.40;;;15.60;99.90;;;;;;5078647;28;20278;-75
2023/08/14 01:23:05;;;;;;;3.90;3.50;;;15.60;99.90;;;;;;5066856;28;20044;-75
2023/08/14 01:25:37;;;;;;;4.90;3.25;;;15.60;99.90;;;;;;5009549;28;20040;-75
2023/08/14 01:28:04;;;;;;;6.60;4.07;;;15.50;99.90;;;;;;5063794;28;20067;-75
2023/08/14 01:30:30;;;;;;;5.57;3.63;;;15.50;99.90;;;;;;5056981;28;20036;-74
2023/08/14 01:32:55;;;;;;;6.32;3.40;;;15.50;99.90;;;;;;5073692;28;20127;-74
2023/08/14 01:35:23;;;;;;;5.78;4.00;;;15.50;99.90;;;;;;5070397;28;20042;-74
2023/08/14 01:37:49;;;;;;;4.75;3.60;;;15.40;99.90;;;;;;5068404;28;20075;-76
2023/08/14 01:40:45;;;;;;;6.18;3.90;;;15.40;99.90;;;;;;5068191;28;20072;-75
2023/08/14 01:43:16;;;;;;;6.57;3.53;;;15.40;99.90;;;;;;5063457;28;20450;-75
2023/08/14 01:45:42;;;;;;;5.15;3.55;;;15.40;99.90;;;;;;5067420;28;20047;-75
2023/08/14 01:48:11;;;;;;;6.22;3.67;;;15.40;99.90;;;;;;5073480;28;20039;-74
2023/08/14 01:50:38;;;;;;;5.43;3.55;;;15.40;99.90;;;;;;5069321;28;20059;-75
2023/08/14 01:53:03;;;;;;;5.00;3.88;;;15.40;99.90;;;;;;5062286;28;20044;-75
2023/08/14 01:55:29;;;;;;;5.97;4.00;;;15.40;99.90;;;;;;5066437;28;20059;-75
2023/08/14 01:57:55;;;;;;;5.32;4.70;;;15.30;99.90;;;;;;5086849;28;20120;-75
2023/08/14 02:00:21;;;;;;;6.30;4.68;;;15.30;99.90;;;;;;5071220;28;20115;-75
2023/08/14 02:02:47;;;;;;;6.30;4.20;;;15.30;99.90;;;;;;5069303;28;20032;-75
2023/08/14 02:05:12;;;;;;;5.28;4.25;;;15.30;99.90;;;;;;5068171;28;20083;-75
2023/08/14 02:07:39;;;;;;;7.35;4.88;;;15.30;99.90;;;;;;5071524;28;20064;-75
2023/08/14 02:10:05;;;;;;;6.72;4.80;;;15.30;99.90;;;;;;5068833;28;20082;-75
2023/08/14 02:12:30;;;;;;;7.15;4.60;;;15.20;99.90;;;;;;5068376;28;20046;-75
2023/08/14 02:14:57;;;;;;;7.47;5.40;;;15.20;99.90;;;;;;5065888;28;20039;-75
2023/08/14 02:17:22;;;;;;;5.97;4.97;;;15.20;99.90;;;;;;5067883;28;20051;-75
2023/08/14 02:19:48;;;;;;;6.70;4.40;;;15.20;99.90;;;;;;5067598;28;20040;-75
2023/08/14 02:22:13;;;;;;;7.18;4.53;;;15.20;99.90;;;;;;5089199;28;20043;-74
2023/08/14 02:24:39;;;;;;;7.45;4.82;;;15.20;99.90;;;;;;5049767;28;20108;-75
2023/08/14 02:27:04;;;;;;;7.95;5.18;;;15.20;99.90;;;;;;5067270;28;20460;-75
2023/08/14 02:29:30;;;;;;;6.15;4.85;;;15.20;99.90;;;;;;5073106;28;20055;-75
2023/08/14 02:31:56;;;;;;;9.93;5.40;;;15.10;99.90;;;;;;5070922;28;20411;-75
2023/08/14 02:34:33;;;;;;;6.45;5.13;;;15.10;99.90;;;;;;5056738;28;20515;-74
2023/08/14 02:36:59;;;;;;;7.03;4.50;;;15.10;99.90;;;;;;5070121;28;20040;-74
2023/08/14 02:39:24;;;;;;;8.50;5.20;;;15.10;99.90;;;;;;5069820;28;20403;-74
2023/08/14 02:41:50;;;;;;;6.28;5.13;;;15.10;99.90;;;;;;5070819;28;20110;-74
2023/08/14 02:44:15;;;;;;;9.77;5.25;;;15.10;99.90;;;;;;5064513;28;20650;-75
2023/08/14 02:46:41;;;;;;;6.82;5.00;;;15.10;99.90;;;;;;5064216;28;20043;-75
2023/08/14 02:49:06;;;;;;;5.80;5.20;;;15.10;99.90;;;;;;5072716;28;20088;-75
2023/08/14 02:51:32;;;;;;;8.05;5.45;;;15.10;99.90;;;;;;5067953;28;20522;-75
2023/08/14 02:53:57;;;;;;;7.65;5.43;;;15.10;99.90;;;;;;5080620;28;20075;-75
2023/08/14 02:56:23;;;;;;;8.65;5.78;;;15.10;99.90;;;;;;5062275;28;20110;-75
2023/08/14 02:58:48;;;;;;;7.70;6.13;;;15.00;99.90;;;;;;5081531;28;20540;-75
2023/08/14 03:01:14;;;;;;;6.50;5.80;;;15.00;99.90;;;;;;5065143;28;20090;-75
2023/08/14 03:03:39;;;;;;;7.28;6.10;;;15.00;99.90;;;;;;5068661;28;20039;-75
2023/08/14 03:06:05;;;;;;;8.75;5.55;;;15.00;99.90;;;;;;5067795;28;20052;-75
2023/08/14 03:08:30;;;;;;;7.25;5.70;;;15.00;99.90;;;;;;5051179;28;20042;-75
2023/08/14 03:10:56;;;;;;;6.85;6.07;;;15.00;99.90;;;;;;5077659;28;20034;-74
2023/08/14 03:13:21;;;;;;;7.15;5.90;;;15.00;99.90;;;;;;5064983;28;20086;-75
2023/08/14 03:15:47;;;;;;;7.88;5.88;;;14.90;99.90;;;;;;5079564;28;20036;-75
2023/08/14 03:18:13;;;;;;;9.75;6.18;;;14.90;99.90;;;;;;5069157;28;20032;-75
2023/08/14 03:20:38;;;;;;;7.85;6.30;;;14.90;99.90;;;;;;5071090;28;20043;-76
2023/08/14 03:23:04;;;;;;;7.78;5.72;;;14.90;99.90;;;;;;5066294;28;20124;-75
2023/08/14 03:25:29;;;;;;;8.52;5.68;;;14.90;99.90;;;;;;5068108;28;20447;-75
2023/08/14 03:27:54;;;;;;;7.70;5.40;;;15.00;99.90;;;;;;5066493;28;20024;-75
2023/08/14 03:30:20;;;;;;;9.60;6.22;;;14.90;99.90;;;;;;5070672;28;20043;-75
2023/08/14 03:32:45;;;;;;;6.90;6.20;;;14.90;99.90;;;;;;5064467;28;20043;-75
2023/08/14 03:35:11;;;;;;;8.15;5.97;;;14.90;99.90;;;;;;5066128;28;20515;-75
2023/08/14 03:37:37;;;;;;;8.05;6.43;;;14.90;99.90;;;;;;5059665;28;20051;-75
2023/08/14 03:40:02;;;;;;;7.55;5.68;;;14.80;99.90;;;;;;5063225;28;20044;-75
2023/08/14 03:42:28;;;;;;;9.43;6.72;;;14.80;99.90;;;;;;5067551;28;20044;-75
2023/08/14 03:44:53;;;;;;;7.25;5.90;;;14.80;99.90;;;;;;5065841;28;20032;-75
2023/08/14 03:47:19;;;;;;;7.82;6.07;;;14.80;99.90;;;;;;5070022;28;20570;-75
2023/08/14 03:49:44;;;;;;;9.65;7.03;;;14.80;99.90;;;;;;5065700;28;20066;-75
2023/08/14 03:52:10;;;;;;;10.32;6.18;;;14.80;99.90;;;;;;5083526;28;20032;-75
2023/08/14 03:54:36;;;;;;;8.15;6.40;;;14.80;99.90;;;;;;5068844;28;20047;-75
2023/08/14 03:57:02;;;;;;;9.10;6.53;;;14.80;99.90;;;;;;5070257;28;20047;-75
2023/08/14 03:59:27;;;;;;;8.30;6.28;;;14.80;99.90;;;;;;5055008;28;20040;-75
2023/08/14 04:01:53;;;;;;;8.95;6.50;;;14.80;99.90;;;;;;5071751;28;20408;-75
2023/08/14 04:04:19;;;;;;;7.80;6.22;;;14.80;99.90;;;;;;5071684;28;20047;-75
2023/08/14 04:06:47;;;;;;;7.85;6.70;;;14.80;99.90;;;;;;5071080;28;20589;-75
2023/08/14 04:09:12;;;;;;;10.57;7.00;;;14.80;99.90;;;;;;5075014;28;20112;-74
2023/08/14 04:11:38;;;;;;;8.05;7.20;;;14.80;99.90;;;;;;5074881;28;20488;-75
2023/08/14 04:14:03;;;;;;;13.73;7.63;;;14.80;99.90;;;;;;5074687;28;20048;-75
2023/08/14 04:16:41;;;;;;;9.57;6.82;;;14.70;99.90;;;;;;5074237;28;20043;-74
2023/08/14 04:19:08;;;;;;;8.05;6.95;;;14.80;99.90;;;;;;5074756;28;20043;-74
2023/08/14 04:21:34;;;;;;;10.38;7.32;;;14.80;99.90;;;;;;5076761;28;20069;-74
2023/08/14 04:23:59;;;;;;;10.88;7.32;;;14.80;99.90;;;;;;5074354;28;20043;-75
2023/08/14 04:26:25;;;;;;;10.70;7.95;;;14.80;99.90;;;;;;5069316;28;20115;-74
2023/08/14 04:28:50;;;;;;;9.60;7.38;;;14.80;99.90;;;;;;5055366;28;20066;-75
2023/08/14 04:31:16;;;;;;;10.55;7.05;;;14.80;99.90;;;;;;5073530;28;20038;-75
2023/08/14 04:33:41;;;;;;;9.70;8.00;;;14.90;99.90;;;;;;5057576;28;20032;-74
2023/08/14 04:36:07;;;;;;;10.48;7.57;;;14.90;99.90;;;;;;5072779;28;20052;-75
2023/08/14 04:38:32;;;;;;;11.57;7.50;;;14.90;99.90;;;;;;5073519;28;20059;-75
2023/08/14 04:40:58;;;;;;;10.88;7.38;;;14.90;99.90;;;;;;5068149;28;20518;-74
2023/08/14 04:43:23;;;;;;;10.02;7.60;;;14.90;99.90;;;;;;5074283;28;20047;-74
2023/08/14 04:45:49;;;;;;;11.07;7.28;;;15.00;99.90;;;;;;5065368;28;20074;-75
2023/08/14 04:48:14;;;;;;;11.52;7.65;;;15.00;99.90;;;;;;5070177;28;20067;-74
2023/08/14 04:50:40;;;;;;;13.25;8.40;;;15.00;99.90;;;;;;5057683;28;20051;-74
2023/08/14 04:53:06;;;;;;;11.25;8.23;;;15.00;99.90;;;;;;5072594;28;20040;-74
2023/08/14 04:55:32;;;;;;;9.27;7.93;;;15.10;99.90;;;;;;5061542;28;20036;-75
2023/08/14 04:57:57;;;;;;;11.15;7.85;;;15.10;99.90;;;;;;5074343;28;20028;-75
2023/08/14 05:00:23;;;;;;;9.90;7.72;;;15.20;99.90;;;;;;5073854;28;20380;-75
2023/08/14 05:02:48;;;;;;;11.57;8.25;;;15.30;99.90;;;;;;5073436;28;20502;-74
2023/08/14 05:05:14;;;;;;;11.75;8.55;;;15.40;99.90;;;;;;5066463;28;20120;-75
2023/08/14 05:07:39;;;;;;;10.00;7.85;;;15.40;99.90;;;;;;5056763;28;20085;-74
2023/08/14 05:10:05;;;;;;;8.45;7.55;;;15.50;99.90;;;;;;5052114;28;20037;-75
2023/08/14 05:12:31;;;;;;;12.88;8.55;;;15.50;99.90;;;;;;5071462;28;20040;-74
2023/08/14 05:14:56;;;;;;;11.70;7.15;;;15.60;99.90;;;;;;5066182;28;20948;-74
2023/08/14 05:17:22;;;;;;;11.30;8.23;;;15.60;99.90;;;;;;5071209;28;20422;-74
2023/08/14 05:19:47;;;;;;;14.77;8.68;;;15.60;99.90;;;;;;5070631;28;20048;-75
2023/08/14 05:22:13;;;;;;;13.23;8.40;;;15.60;99.90;;;;;;5063371;28;20040;-74
2023/08/14 05:24:38;;;;;;;12.23;8.32;;;15.60;99.90;;;;;;5063626;28;20081;-74
2023/08/14 05:27:04;;;;;;;12.80;8.43;;;15.60;99.90;;;;;;5067844;28;20036;-74
2023/08/14 05:29:30;;;;;;;14.75;8.90;;;15.60;99.90;;;;;;5072865;28;20499;-75
2023/08/14 05:31:56;;;;;;;11.82;8.32;;;15.70;99.90;;;;;;5068477;28;20040;-75
2023/08/14 05:34:21;;;;;;;11.27;7.80;;;15.70;99.90;;;;;;5065418;28;20114;-75
2023/08/14 05:36:47;;;;;;;11.20;7.85;;;15.80;99.90;;;;;;5065386;28;20036;-75
2023/08/14 05:39:12;;;;;;;10.98;8.02;;;15.80;99.90;;;;;;5062975;28;20073;-74
2023/08/14 05:41:39;;;;;;;11.80;8.35;;;15.90;99.90;;;;;;5065993;28;20496;-75
2023/08/14 05:44:05;;;;;;;12.77;8.20;;;15.90;99.90;;;;;;5070053;28;20072;-75
2023/08/14 05:46:30;;;;;;;12.00;7.78;;;16.00;99.90;;;;;;5064385;28;20115;-74
2023/08/14 05:48:56;;;;;;;11.27;8.18;;;16.00;99.90;;;;;;5068826;28;20039;-75
2023/08/14 05:51:22;;;;;;;13.52;8.25;;;16.10;99.90;;;;;;5057707;28;20123;-74
2023/08/14 05:53:47;;;;;;;13.05;7.88;;;16.20;99.90;;;;;;5072101;28;20044;-74
2023/08/14 05:56:13;;;;;;;11.32;7.80;;;16.20;99.90;;;;;;5063532;28;20054;-74
2023/08/14 05:58:38;;;;;;;9.98;8.30;;;16.30;99.90;;;;;;5074148;28;20115;-74
2023/08/14 06:01:04;;;;;;;12.73;7.82;;;16.30;99.90;;;;;;5066916;28;20043;-74
2023/08/14 06:03:29;;;;;;;11.48;8.20;;;16.30;99.90;;;;;;5065687;28;20066;-74
2023/08/14 06:05:55;;;;;;;11.50;8.15;;;16.40;99.90;;;;;;5070892;28;20075;-75
2023/08/14 06:08:20;;;;;;;11.13;7.90;;;16.50;99.90;;;;;;5074734;28;20047;-75
2023/08/14 06:10:46;;;;;;;12.43;8.07;;;16.50;99.90;;;;;;5066543;28;20767;-74
2023/08/14 06:13:11;;;;;;;11.95;7.57;;;16.70;99.90;;;;;;5060613;28;20040;-75
2023/08/14 06:15:37;;;;;;;11.15;7.60;;;16.70;99.90;;;;;;5068893;28;20047;-74
2023/08/14 06:18:03;;;;;;;13.00;8.18;;;16.80;99.90;;;;;;5068444;28;20127;-74
2023/08/14 06:20:29;;;;;;;9.98;7.72;;;16.90;99.90;;;;;;5071774;28;20036;-75
2023/08/14 06:22:54;;;;;;;11.90;7.93;;;17.00;99.90;;;;;;5061917;28;20040;-75
2023/08/14 06:25:20;;;;;;;12.00;8.57;;;17.10;99.90;;;;;;5075605;28;20044;-74
2023/08/14 06:27:46;;;;;;;16.13;8.43;;;17.20;99.90;;;;;;5075033;28;20424;-73
2023/08/14 06:30:12;;;;;;;13.63;7.90;;;17.20;99.90;;;;;;5072730;28;20169;-74
2023/08/14 06:32:38;;;;;;;12.63;8.50;;;17.30;99.90;;;;;;5064484;28;20361;-74
2023/08/14 06:35:05;;;;;;;12.80;7.72;;;17.30;99.90;;;;;;5072298;28;20115;-74
2023/08/14 06:37:31;;;;;;;15.27;8.18;;;17.30;99.90;;;;;;5063849;28;20169;-75
2023/08/14 06:39:57;;;;;;;13.10;7.70;;;17.30;99.90;;;;;;5065699;28;20044;-74
2023/08/14 06:42:23;;;;;;;10.75;7.47;;;17.40;99.90;;;;;;5068559;28;20125;-75
2023/08/14 06:44:48;;;;;;;11.65;7.60;;;17.40;99.90;;;;;;5059374;28;20032;-74
2023/08/14 06:47:14;;;;;;;11.10;7.65;;;17.40;99.90;;;;;;5072691;28;20040;-75
2023/08/14 06:49:39;;;;;;;11.13;7.72;;;17.50;99.90;;;;;;5056889;28;20036;-75
2023/08/14 06:52:05;;;;;;;14.52;8.60;;;17.50;99.90;;;;;;5067852;28;20044;-74
2023/08/14 06:54:31;;;;;;;14.55;7.90;;;17.50;99.90;;;;;;5066596;28;20048;-74
2023/08/14 06:56:56;;;;;;;11.15;6.97;;;17.60;99.90;;;;;;5081951;28;20039;-73
2023/08/14 06:59:22;;;;;;;11.00;7.57;;;17.60;99.90;;;;;;5065874;28;20036;-74
2023/08/14 07:01:47;;;;;;;11.15;8.23;;;17.70;99.90;;;;;;5064184;28;20056;-75
2023/08/14 07:04:13;;;;;;;11.43;6.85;;;17.70;99.90;;;;;;5065579;28;20120;-74
2023/08/14 07:06:38;;;;;;;11.32;8.10;;;17.80;99.90;;;;;;5060999;28;20439;-74
2023/08/14 07:09:04;;;;;;;9.13;7.45;;;17.80;99.90;;;;;;5065644;28;20499;-72
2023/08/14 07:11:38;;;;;;;12.80;7.70;;;17.90;99.90;;;;;;5071508;28;20036;-74
2023/08/14 07:14:03;;;;;;;11.40;7.60;;;18.10;99.90;;;;;;5073762;28;20044;-74
2023/08/14 07:16:29;;;;;;;10.73;7.05;;;18.20;99.90;;;;;;5069350;28;20055;-74
2023/08/14 07:18:54;;;;;;;12.30;7.30;;;18.40;99.90;;;;;;5070221;28;20414;-74
2023/08/14 07:21:20;;;;;;;11.77;7.10;;;18.60;99.90;;;;;;5070144;28;20473;-75
2023/08/14 07:23:46;;;;;;;10.35;7.13;;;18.70;99.90;;;;;;5087679;28;20051;-75
2023/08/14 07:26:11;;;;;;;12.77;7.47;;;18.80;99.90;;;;;;5068168;28;20032;-75
2023/08/14 07:28:40;;;;;;;10.98;6.88;;;18.90;99.90;;;;;;5069982;28;20029;-74
2023/08/14 07:31:07;;;;;;;11.32;6.65;;;19.10;99.90;;;;;;5068023;28;20115;-74
2023/08/14 07:33:33;;;;;;;10.45;7.20;;;19.10;99.90;;;;;;5070973;28;20044;-75
2023/08/14 07:35:59;;;;;;;13.13;7.22;;;19.20;99.90;;;;;;5075008;28;20445;-75
2023/08/14 07:38:25;;;;;;;15.23;7.25;;;19.20;99.90;;;;;;5072891;28;20032;-75
2023/08/14 07:40:51;;;;;;;13.13;6.93;;;19.30;99.90;;;;;;5071194;28;20043;-74
2023/08/14 07:43:17;;;;;;;9.43;6.70;;;19.40;99.90;;;;;;5075679;28;20036;-75
2023/08/14 07:45:43;;;;;;;9.68;5.97;;;19.60;99.90;;;;;;5073622;28;20062;-74
2023/08/14 07:48:09;;;;;;;9.48;5.75;;;19.80;99.90;;;;;;5073861;28;20090;-75
2023/08/14 07:50:35;;;;;;;8.65;5.82;;;19.90;99.90;;;;;;5075972;28;20046;-75
2023/08/14 07:53:01;;;;;;;11.43;5.47;;;20.00;99.90;;;;;;5075701;28;20048;-75
2023/08/14 07:55:26;;;;;;;10.63;5.47;;;19.90;99.90;;;;;;5059162;28;20483;-74
2023/08/14 07:57:52;;;;;;;10.13;5.25;;;20.00;99.90;;;;;;5072425;28;20032;-75
2023/08/14 08:00:17;;;;;;;11.13;5.03;;;20.00;99.90;;;;;;5075207;28;20406;-74
2023/08/14 08:02:43;;;;;;;9.65;5.13;;;19.90;99.90;;;;;;5075129;28;20469;-76
2023/08/14 08:05:09;;;;;;;8.65;5.00;;;20.00;99.90;;;;;;5072394;28;20036;-74
2023/08/14 08:07:34;;;;;;;9.88;5.18;;;20.00;99.90;;;;;;5076764;28;20533;-74
2023/08/14 08:10:01;;;;;;;8.45;4.93;;;20.00;99.90;;;;;;5072950;28;20043;-75
2023/08/14 08:12:27;;;;;;;8.93;4.85;;;20.00;99.90;;;;;;5056236;28;20036;-75
2023/08/14 08:14:53;;;;;;;7.90;4.70;;;20.00;99.90;;;;;;5074507;28;20402;-75
2023/08/14 08:17:18;;;;;;;12.48;4.90;;;20.10;99.90;;;;;;5071896;28;20081;-74
2023/08/14 08:19:46;;;;;;;13.00;5.43;;;20.30;99.90;;;;;;5090877;28;20064;-74
2023/08/14 08:22:12;;;;;;;7.20;4.55;;;20.30;99.90;;;;;;5071994;28;20075;-75
2023/08/14 08:24:37;;;;;;;8.32;4.80;;;20.30;99.90;;;;;;5073294;28;20072;-74
2023/08/14 08:27:03;;;;;;;8.80;4.60;;;20.50;99.90;;;;;;5056295;28;20487;-75
2023/08/14 08:29:28;;;;;;;7.68;4.82;;;20.60;99.90;;;;;;5055071;28;20565;-74
2023/08/14 08:31:54;;;;;;;17.23;5.05;;;20.90;99.90;;;;;;5070832;28;20035;-74
2023/08/14 08:34:20;;;;;;;8.30;4.70;;;21.10;99.90;;;;;;5071789;28;20411;-75
2023/08/14 08:36:46;;;;;;;8.80;4.55;;;21.10;99.90;;;;;;5073269;28;20044;-75
2023/08/14 08:39:11;;;;;;;10.90;4.63;;;21.10;99.90;;;;;;5058343;28;20043;-74
2023/08/14 08:41:40;;;;;;;6.55;4.00;;;21.10;99.90;;;;;;5070038;28;20087;-74
2023/08/14 08:44:09;;;;;;;9.35;4.30;;;21.20;99.90;;;;;;5065087;28;20040;-74
2023/08/14 08:46:37;;;;;;;10.05;4.22;;;21.30;99.90;;;;;;5074655;28;20032;-74
2023/08/14 08:49:03;;;;;;;7.07;4.00;;;21.40;99.90;;;;;;5070596;28;20040;-74
2023/08/14 08:51:30;;;;;;;6.75;3.85;;;21.60;99.90;;;;;;5073143;28;20449;-74
2023/08/14 08:53:58;;;;;;;9.93;4.15;;;21.70;99.90;;;;;;5066167;28;20126;-75
2023/08/14 08:56:24;;;;;;;6.47;3.33;;;21.70;99.90;;;;;;5092580;28;20495;-75
2023/08/14 08:58:51;;;;;;;7.90;3.55;;;21.80;99.90;;;;;;5074914;28;20040;-75
2023/08/14 09:01:18;;;;;;;5.53;2.97;;;21.80;99.90;;;;;;5063149;28;20239;-75
2023/08/14 09:03:45;;;;;;;7.72;3.10;;;22.10;99.90;;;;;;5074250;28;20082;-75
2023/08/14 09:06:10;;;;;;;6.22;2.47;;;22.10;99.90;;;;;;5073076;28;20047;-74
2023/08/14 09:08:36;;;;;;;7.53;2.38;;;22.20;99.90;;;;;;5075225;28;20547;-74
2023/08/14 09:11:02;;;;;;;5.70;2.50;;;22.20;99.90;;;;;;5082143;28;20113;-75
2023/08/14 09:13:27;;;;;;;6.55;2.58;;;22.20;99.90;;;;;;5073044;28;20043;-75
2023/08/14 09:15:53;;;;;;;5.28;2.70;;;22.30;99.90;;;;;;5070931;28;20036;-75
2023/08/14 09:18:19;;;;;;;5.47;2.33;;;22.40;99.90;;;;;;5073159;28;20458;-75
2023/08/14 09:20:45;;;;;;;5.20;2.05;;;22.40;99.90;;;;;;5053463;28;20037;-75
2023/08/14 09:23:12;;;;;;;7.15;2.10;;;22.50;99.90;;;;;;5074311;28;20441;-75
2023/08/14 09:25:42;;;;;;;4.07;1.95;;;22.60;99.90;;;;;;5069884;28;20075;-74
2023/08/14 09:28:09;;;;;;;6.55;1.83;;;22.80;99.90;;;;;;5062748;28;20032;-74
2023/08/14 09:30:39;;;;;;;6.93;1.90;;;22.70;99.90;;;;;;5069629;28;20056;-75
2023/08/14 09:33:09;;;;;;;5.38;1.83;;;22.90;99.90;;;;;;5068820;28;20086;-75
2023/08/14 09:35:35;;;;;;;2.90;1.73;;;22.90;99.90;;;;;;5085427;28;20043;-74
2023/08/14 09:38:01;;;;;;;6.78;1.92;;;22.70;99.90;;;;;;5069821;28;20036;-75
2023/08/14 09:40:27;;;;;;;4.63;1.40;;;22.60;99.90;;;;;;5071842;28;20059;-74
2023/08/14 09:42:55;;;;;;;3.78;1.40;;;22.70;99.90;;;;;;5061724;28;20040;-74
2023/08/14 09:45:24;;;;;;;4.78;1.90;;;22.70;99.90;;;;;;5072845;28;20036;-74
2023/08/14 09:47:50;;;;;;;3.83;1.70;;;22.70;99.90;;;;;;5073666;28;20036;-74
2023/08/14 09:50:17;;;;;;;3.88;1.50;;;22.60;99.90;;;;;;5073916;28;20098;-74
2023/08/14 09:52:43;;;;;;;6.40;1.50;;;22.70;99.90;;;;;;5073456;28;20161;-75
2023/08/14 09:55:10;;;;;;;5.05;1.73;;;22.70;99.90;;;;;;5073592;28;20040;-74
2023/08/14 09:57:36;;;;;;;3.47;1.40;;;22.90;99.90;;;;;;5090545;28;20447;-74
2023/08/14 10:00:03;;;;;;;3.50;1.40;;;22.90;99.90;;;;;;5073236;28;20414;-75
2023/08/14 10:02:32;;;;;;;3.92;1.55;;;22.90;99.90;;;;;;5070557;28;20048;-75
2023/08/14 10:05:00;;;;;;;2.70;1.40;;;22.90;99.90;;;;;;5087053;28;20123;-75
2023/08/14 10:07:26;;;;;;;3.35;1.20;;;23.00;99.90;;;;;;5071581;28;20076;-74
2023/08/14 10:09:55;;;;;;;2.67;1.38;;;23.20;99.90;;;;;;5071143;28;20036;-75
2023/08/14 10:12:28;;;;;;;3.25;1.58;;;23.40;99.90;;;;;;5072623;28;20066;-74
2023/08/14 10:15:05;;;;;;;4.15;1.75;;;23.60;99.90;;;;;;5054731;28;20032;-74
2023/08/14 10:17:41;;;;;;;3.38;1.60;;;23.70;99.90;;;;;;5071281;28;20085;-75
2023/08/14 10:20:10;;;;;;;3.70;1.20;;;23.70;99.90;;;;;;5057758;28;20089;-75
2023/08/14 10:22:36;;;;;;;4.13;1.30;;;23.90;99.90;;;;;;5068916;28;20044;-75
2023/08/14 10:25:06;;;;;;;4.65;1.42;;;24.10;99.90;;;;;;5071720;28;20091;-74
2023/08/14 10:27:32;;;;;;;3.35;1.48;;;24.10;99.90;;;;;;5068018;28;20388;-75
2023/08/14 10:29:58;;;;;;;4.22;1.27;;;24.20;99.90;;;;;;5097764;28;20414;-75
2023/08/14 10:32:25;;;;;;;2.58;1.17;;;24.20;99.90;;;;;;5072712;28;20058;-75
2023/08/14 10:34:52;;;;;;;4.97;1.30;;;24.20;99.90;;;;;;5072561;28;20047;-75
2023/08/14 10:37:43;;;;;;;3.67;1.30;;;24.20;99.90;;;;;;5072350;28;20094;-75
2023/08/14 10:40:17;;;;;;;2.88;1.20;;;24.00;99.90;;;;;;5075031;28;20403;-75
2023/08/14 10:42:47;;;;;;;3.47;1.10;;;24.00;99.90;;;;;;5071620;28;20078;-75
2023/08/14 10:45:17;;;;;;;3.72;1.40;;;24.20;99.90;;;;;;5066589;28;20399;-75
2023/08/14 10:47:43;;;;;;;2.28;1.20;;;24.20;99.90;;;;;;5072892;28;20051;-75
2023/08/14 10:50:19;;;;;;;4.28;1.25;;;24.30;99.90;;;;;;5072450;28;20028;-75
2023/08/14 10:52:50;;;;;;;4.03;1.50;;;24.20;99.90;;;;;;5072832;28;20548;-75
2023/08/14 10:55:22;;;;;;;2.53;1.20;;;24.10;99.90;;;;;;5072661;28;20105;-75
2023/08/14 10:57:48;;;;;;;5.15;1.42;;;24.10;99.90;;;;;;5073861;28;20036;-75
2023/08/14 11:00:26;;;;;;;4.38;1.10;;;24.30;99.90;;;;;;5073499;28;20055;-75
2023/08/14 11:03:06;;;;;;;5.93;1.38;;;24.20;99.90;;;;;;5080720;28;20518;-75
2023/08/14 11:05:39;;;;;;;5.47;1.40;;;24.20;99.90;;;;;;5074396;28;20402;-75
2023/08/14 11:08:06;;;;;;;6.55;1.73;;;24.10;99.90;;;;;;5065423;28;20407;-75
2023/08/14 11:10:35;;;;;;;3.45;1.33;;;24.20;99.90;;;;;;5071740;28;20036;-75
2023/08/14 11:13:02;;;;;;;4.30;1.40;;;24.40;99.90;;;;;;5064823;28;20130;-76
2023/08/14 11:15:30;;;;;;;2.85;1.10;;;24.70;99.90;;;;;;5061363;28;20036;-75
2023/08/14 11:17:56;;;;;;;3.88;1.30;;;24.80;99.90;;;;;;5067729;28;20047;-75
2023/08/14 11:20:25;;;;;;;3.33;1.42;;;25.00;99.90;;;;;;5074218;28;20123;-76
2023/08/14 11:22:50;;;;;;;4.65;1.40;;;25.10;99.90;;;;;;5081033;28;20032;-75
2023/08/14 11:25:16;;;;;;;4.95;1.48;;;25.10;99.90;;;;;;5080249;28;20092;-76
2023/08/14 11:27:49;;;;;;;3.40;1.20;;;25.30;99.90;;;;;;5073350;28;20036;-76
2023/08/14 11:30:15;;;;;;;4.40;1.70;;;25.10;99.90;;;;;;5078771;28;20073;-76
2023/08/14 11:32:40;;;;;;;4.95;1.30;;;25.30;99.90;;;;;;5075874;28;20094;-76
2023/08/14 11:35:07;;;;;;;3.35;1.50;;;25.10;99.90;;;;;;5076386;28;20036;-76
2023/08/14 11:37:32;;;;;;;2.75;1.20;;;24.80;99.90;;;;;;5076700;28;20044;-75
2023/08/14 11:40:06;;;;;;;3.25;1.30;;;24.70;99.90;;;;;;5075271;28;20100;-76
2023/08/14 11:42:36;;;;;;;3.05;1.30;;;24.50;99.90;;;;;;5079223;28;20040;-76
2023/08/14 11:45:03;;;;;;;3.83;1.10;;;24.70;99.90;;;;;;5070686;28;20410;-76
2023/08/14 11:47:48;;;;;;;4.68;1.38;;;25.10;99.90;;;;;;5074559;28;20322;-76
2023/08/14 11:50:15;;;;;;;3.22;1.48;;;25.50;99.90;;;;;;5073014;28;20552;-76
2023/08/14 11:52:44;;;;;;;3.08;1.40;;;25.50;99.90;;;;;;5073216;28;20047;-75
2023/08/14 11:55:10;;;;;;;5.32;1.17;;;25.60;99.90;;;;;;5076350;28;20174;-76
2023/08/14 11:57:36;;;;;;;4.53;1.40;;;25.40;99.90;;;;;;5072157;28;20135;-76
2023/08/14 12:00:10;;;;;;;2.30;1.10;;;25.50;99.90;;;;;;5059447;28;20134;-76
2023/08/14 12:02:36;;;;;;;5.22;1.70;;;25.80;99.90;;;;;;5097847;28;20515;-76
2023/08/14 12:05:02;;;;;;;3.00;1.50;;;25.90;99.90;;;;;;5076090;28;20044;-75
2023/08/14 12:07:30;;;;;;;3.92;1.38;;;26.10;99.90;;;;;;5080949;28;20503;-75
2023/08/14 12:09:56;;;;;;;4.47;1.38;;;26.00;99.90;;;;;;5092501;28;20047;-75
2023/08/14 12:12:24;;;;;;;6.72;1.50;;;26.20;99.90;;;;;;5075920;28;20044;-76
2023/08/14 12:14:50;;;;;;;5.07;1.50;;;26.60;99.90;;;;;;5075834;28;20119;-76
2023/08/14 12:17:18;;;;;;;3.35;1.30;;;26.70;99.90;;;;;;5092946;28;20043;-75
2023/08/14 12:19:59;;;;;;;5.22;1.40;;;26.70;99.90;;;;;;5066714;28;20066;-75
2023/08/14 12:22:27;;;;;;;5.13;1.50;;;26.70;99.90;;;;;;5067310;28;20068;-75
2023/08/14 12:24:54;;;;;;;7.38;1.70;;;26.70;99.90;;;;;;5060943;28;20044;-76
2023/08/14 12:27:27;;;;;;;5.10;1.58;;;27.00;99.90;;;;;;5067638;28;20032;-75
2023/08/14 12:29:54;;;;;;;3.33;1.30;;;26.80;99.90;;;;;;5070593;28;20094;-76
2023/08/14 12:32:21;;;;;;;3.42;1.15;;;26.70;99.90;;;;;;5064921;28;20552;-76
2023/08/14 12:34:46;;;;;;;4.40;1.20;;;26.60;99.90;;;;;;5070889;28;20124;-77
2023/08/14 12:37:14;;;;;;;4.40;1.40;;;26.80;99.90;;;;;;5087018;28;20464;-76
2023/08/14 12:39:41;;;;;;;5.38;1.73;;;26.70;99.90;;;;;;5074718;28;20115;-75
2023/08/14 12:42:07;;;;;;;5.97;1.58;;;26.90;99.90;;;;;;5074341;28;20044;-76